PWSweather.com
Personal Weather Stations
Station Observations
WATERF01
WaterfordIE

WaterfordIE

Lat: 52.2412507, Lon: -7.1414691

Elevation: 65

Station Type: Davis Vantage Vue

www.waterfordweather.com

High Low Average
Temperature 63.4°F17.4°C 50.4°F10.2°C 56.9°F13.8°C
Dew Point 53.6°F12.0°C 45.7°F7.6°C 48.5°F9.2°C
Winds 9.2 mph 14.8 kmh Calm Calm 4.0 mph NW6.4 kmh NW
Wind Gusts 16.1 mph25.9 kmh -- 7.0 mph11.3 kmh
Humidity 87% 56% 74%
Pressure 30.24 in1024.0 mb 29.92 in1013.2 mb -
Precipitation 0.01 in0.3 mm - -
Hour Temp Dew Point Humidity Winds Wind Gusts Pressure Precip Precip Rate Daily Precip Total
12:00 AM 57.8°F14.3°C 53.6°F12.0°C 86% 5.8 mph W9.3 kmh W 8.1 mph13.0 kmh 29.92 in1013.2 mb - 0.00 in0.0 mm 0.00 in0.0 mm
12:10 AM 57.7°F14.3°C 53.5°F11.9°C 86% 5.8 mph W9.3 kmh W 9.2 mph14.8 kmh 29.92 in1013.2 mb - 0.00 in0.0 mm 0.00 in0.0 mm
12:20 AM 57.6°F14.2°C 53.4°F11.9°C 86% 4.6 mph WNW7.4 kmh WNW 8.1 mph13.0 kmh 29.92 in1013.2 mb - 0.00 in0.0 mm 0.00 in0.0 mm
12:30 AM 57.7°F14.3°C 53.5°F11.9°C 86% 9.2 mph NW14.8 kmh NW 13.8 mph22.2 kmh 29.93 in1013.5 mb - 0.00 in0.0 mm 0.00 in0.0 mm
12:40 AM 56.3°F13.5°C 51.9°F11.1°C 85% 6.9 mph NW11.1 kmh NW 13.8 mph22.2 kmh 29.93 in1013.5 mb - 0.00 in0.0 mm 0.00 in0.0 mm
12:50 AM 55.7°F13.2°C 51.3°F10.7°C 85% 5.8 mph NW9.3 kmh NW 11.5 mph18.5 kmh 29.93 in1013.5 mb - 0.00 in0.0 mm 0.00 in0.0 mm
01:00 AM 55.1°F12.8°C 51.0°F10.6°C 86% 8.1 mph NW13.0 kmh NW 11.5 mph18.5 kmh 29.93 in1013.5 mb - 0.00 in0.0 mm 0.00 in0.0 mm
01:10 AM 54.6°F12.6°C 50.5°F10.3°C 86% 9.2 mph NW14.8 kmh NW 12.7 mph20.4 kmh 29.94 in1013.9 mb - 0.00 in0.0 mm 0.00 in0.0 mm
01:20 AM 54.3°F12.4°C 50.5°F10.3°C 87% 8.1 mph NW13.0 kmh NW 11.5 mph18.5 kmh 29.94 in1013.9 mb - 0.00 in0.0 mm 0.00 in0.0 mm
01:30 AM 53.9°F12.2°C 50.1°F10.1°C 87% 6.9 mph NW11.1 kmh NW 11.5 mph18.5 kmh 29.95 in1014.2 mb - 0.00 in0.0 mm 0.00 in0.0 mm
01:40 AM 53.6°F12.0°C 49.8°F9.9°C 87% 9.2 mph NNW14.8 kmh NNW 13.8 mph22.2 kmh 29.95 in1014.2 mb - 0.00 in0.0 mm 0.00 in0.0 mm
01:50 AM 53.4°F11.9°C 49.6°F9.8°C 87% 9.2 mph NNW14.8 kmh NNW 16.1 mph25.9 kmh 29.95 in1014.2 mb - 0.00 in0.0 mm 0.00 in0.0 mm
02:00 AM 52.7°F11.5°C 48.6°F9.2°C 86% 5.8 mph NNW9.3 kmh NNW 11.5 mph18.5 kmh 29.95 in1014.2 mb - 0.01 in0.3 mm 0.01 in0.3 mm
02:10 AM 52.4°F11.3°C 48.6°F9.2°C 87% 4.6 mph N7.4 kmh N 11.5 mph18.5 kmh 29.95 in1014.2 mb - 0.01 in0.3 mm 0.01 in0.3 mm
02:20 AM 52.2°F11.2°C 48.4°F9.1°C 87% 5.8 mph NNW9.3 kmh NNW 12.7 mph20.4 kmh 29.95 in1014.2 mb - 0.01 in0.3 mm 0.01 in0.3 mm
02:30 AM 52.2°F11.2°C 48.4°F9.1°C 87% 3.5 mph NNW5.6 kmh NNW 11.5 mph18.5 kmh 29.95 in1014.2 mb - 0.01 in0.3 mm 0.01 in0.3 mm
02:40 AM 52.2°F11.2°C 48.1°F8.9°C 86% 3.5 mph NNW5.6 kmh NNW 5.8 mph9.3 kmh 29.96 in1014.6 mb - 0.01 in0.3 mm 0.01 in0.3 mm
02:50 AM 52.2°F11.2°C 48.4°F9.1°C 87% 2.3 mph NNW3.7 kmh NNW 5.8 mph9.3 kmh 29.96 in1014.6 mb - 0.01 in0.3 mm 0.01 in0.3 mm
03:00 AM 52.1°F11.2°C 48.0°F8.9°C 86% 4.6 mph NNW7.4 kmh NNW 8.1 mph13.0 kmh 29.96 in1014.6 mb - 0.00 in0.0 mm 0.01 in0.3 mm
03:10 AM 52.0°F11.1°C 48.0°F8.9°C 86% 4.6 mph NNW7.4 kmh NNW 8.1 mph13.0 kmh 29.96 in1014.6 mb - 0.00 in0.0 mm 0.01 in0.3 mm
03:20 AM 52.2°F11.2°C 48.1°F8.9°C 86% 3.5 mph NNW5.6 kmh NNW 5.8 mph9.3 kmh 29.97 in1014.9 mb - 0.00 in0.0 mm 0.01 in0.3 mm
03:30 AM 52.2°F11.2°C 48.1°F8.9°C 86% 5.8 mph NNW9.3 kmh NNW 8.1 mph13.0 kmh 29.97 in1014.9 mb - 0.00 in0.0 mm 0.01 in0.3 mm
03:40 AM 52.2°F11.2°C 48.1°F8.9°C 86% 4.6 mph NNW7.4 kmh NNW 11.5 mph18.5 kmh 29.97 in1014.9 mb - 0.00 in0.0 mm 0.01 in0.3 mm
03:50 AM 52.1°F11.2°C 48.0°F8.9°C 86% 5.8 mph NNW9.3 kmh NNW 8.1 mph13.0 kmh 29.97 in1014.9 mb - 0.00 in0.0 mm 0.01 in0.3 mm
04:00 AM 52.1°F11.2°C 48.0°F8.9°C 86% 4.6 mph NNW7.4 kmh NNW 9.2 mph14.8 kmh 29.98 in1015.2 mb - 0.00 in0.0 mm 0.01 in0.3 mm
04:10 AM 52.1°F11.2°C 48.0°F8.9°C 86% 4.6 mph NNW7.4 kmh NNW 8.1 mph13.0 kmh 29.98 in1015.2 mb - 0.00 in0.0 mm 0.01 in0.3 mm
04:20 AM 52.1°F11.2°C 48.1°F8.9°C 86% 4.6 mph NNW7.4 kmh NNW 8.1 mph13.0 kmh 29.98 in1015.2 mb - 0.00 in0.0 mm 0.01 in0.3 mm
04:30 AM 52.1°F11.2°C 48.0°F8.9°C 86% 5.8 mph NNW9.3 kmh NNW 8.1 mph13.0 kmh 29.98 in1015.2 mb - 0.00 in0.0 mm 0.01 in0.3 mm
04:40 AM 52.0°F11.1°C 47.9°F8.8°C 86% 3.5 mph NNW5.6 kmh NNW 5.8 mph9.3 kmh 29.99 in1015.6 mb - 0.00 in0.0 mm 0.01 in0.3 mm
04:50 AM 51.8°F11.0°C 47.7°F8.7°C 86% 6.9 mph NNW11.1 kmh NNW 8.1 mph13.0 kmh 30.00 in1015.9 mb - 0.00 in0.0 mm 0.01 in0.3 mm
05:00 AM 51.5°F10.8°C 47.5°F8.6°C 86% 4.6 mph NNW7.4 kmh NNW 6.9 mph11.1 kmh 29.99 in1015.6 mb - 0.00 in0.0 mm 0.01 in0.3 mm
05:10 AM 51.2°F10.7°C 47.2°F8.4°C 86% 1.2 mph E1.9 kmh E 4.6 mph7.4 kmh 30.00 in1015.9 mb - 0.00 in0.0 mm 0.01 in0.3 mm
05:20 AM 50.8°F10.4°C 46.8°F8.2°C 86% 1.2 mph N1.9 kmh N 5.8 mph9.3 kmh 30.00 in1015.9 mb - 0.00 in0.0 mm 0.01 in0.3 mm
05:30 AM 50.6°F10.3°C 46.6°F8.1°C 86% 2.3 mph NNW3.7 kmh NNW 5.8 mph9.3 kmh 30.00 in1015.9 mb - 0.00 in0.0 mm 0.01 in0.3 mm
05:40 AM 50.6°F10.3°C 46.9°F8.3°C 87% 2.3 mph NNW3.7 kmh NNW 2.3 mph3.7 kmh 30.01 in1016.3 mb - 0.00 in0.0 mm 0.01 in0.3 mm
05:50 AM 50.5°F10.3°C 46.8°F8.2°C 87% 1.2 mph NW1.9 kmh NW 5.8 mph9.3 kmh 30.01 in1016.3 mb - 0.00 in0.0 mm 0.01 in0.3 mm
06:00 AM 50.4°F10.2°C 46.7°F8.2°C 87% 3.5 mph NNW5.6 kmh NNW 5.8 mph9.3 kmh 30.02 in1016.6 mb - 0.00 in0.0 mm 0.01 in0.3 mm
06:10 AM 50.4°F10.2°C 46.7°F8.2°C 87% 3.5 mph NW5.6 kmh NW 5.8 mph9.3 kmh 30.02 in1016.6 mb - 0.00 in0.0 mm 0.01 in0.3 mm
06:20 AM 50.5°F10.3°C 46.8°F8.2°C 87% Calm Calm 2.3 mph3.7 kmh 30.03 in1016.9 mb - 0.00 in0.0 mm 0.01 in0.3 mm
06:30 AM 50.5°F10.3°C 46.8°F8.2°C 87% 1.2 mph NW1.9 kmh NW 2.3 mph3.7 kmh 30.04 in1017.3 mb - 0.00 in0.0 mm 0.01 in0.3 mm
06:40 AM 50.4°F10.2°C 46.7°F8.2°C 87% 2.3 mph WNW3.7 kmh WNW 4.6 mph7.4 kmh 30.04 in1017.3 mb - 0.00 in0.0 mm 0.01 in0.3 mm
06:50 AM 50.5°F10.3°C 46.8°F8.2°C 87% 1.2 mph W1.9 kmh W 2.3 mph3.7 kmh 30.04 in1017.3 mb - 0.00 in0.0 mm 0.01 in0.3 mm
07:00 AM 50.7°F10.4°C 47.0°F8.3°C 87% 3.5 mph NW5.6 kmh NW 8.1 mph13.0 kmh 30.04 in1017.3 mb - 0.00 in0.0 mm 0.01 in0.3 mm
07:10 AM 51.1°F10.6°C 47.4°F8.6°C 87% 2.3 mph NW3.7 kmh NW 4.6 mph7.4 kmh 30.05 in1017.6 mb - 0.00 in0.0 mm 0.01 in0.3 mm
07:20 AM 51.6°F10.9°C 47.9°F8.8°C 87% 2.3 mph NW3.7 kmh NW 4.6 mph7.4 kmh 30.05 in1017.6 mb - 0.00 in0.0 mm 0.01 in0.3 mm
07:30 AM 52.2°F11.2°C 48.1°F8.9°C 86% 3.5 mph NW5.6 kmh NW 6.9 mph11.1 kmh 30.05 in1017.6 mb - 0.00 in0.0 mm 0.01 in0.3 mm
07:40 AM 52.5°F11.4°C 48.1°F8.9°C 85% 3.5 mph WNW5.6 kmh WNW 5.8 mph9.3 kmh 30.05 in1017.6 mb - 0.00 in0.0 mm 0.01 in0.3 mm
07:50 AM 52.6°F11.4°C 48.2°F9.0°C 85% 4.6 mph WNW7.4 kmh WNW 6.9 mph11.1 kmh 30.06 in1017.9 mb - 0.00 in0.0 mm 0.01 in0.3 mm
08:00 AM 52.9°F11.6°C 48.2°F9.0°C 84% 4.6 mph NW7.4 kmh NW 6.9 mph11.1 kmh 30.07 in1018.3 mb - 0.00 in0.0 mm 0.01 in0.3 mm
08:10 AM 53.0°F11.7°C 48.3°F9.1°C 84% 2.3 mph WNW3.7 kmh WNW 5.8 mph9.3 kmh 30.07 in1018.3 mb - 0.00 in0.0 mm 0.01 in0.3 mm
08:20 AM 53.8°F12.1°C 48.7°F9.3°C 83% 4.6 mph NW7.4 kmh NW 8.1 mph13.0 kmh 30.07 in1018.3 mb - 0.00 in0.0 mm 0.01 in0.3 mm
08:30 AM 54.7°F12.6°C 49.3°F9.6°C 82% Calm Calm -- 30.07 in1018.3 mb - 0.00 in0.0 mm 0.01 in0.3 mm
08:40 AM 55.0°F12.8°C 48.9°F9.4°C 80% 4.6 mph NW7.4 kmh NW 6.9 mph11.1 kmh 30.07 in1018.3 mb - 0.00 in0.0 mm 0.01 in0.3 mm
08:50 AM 55.7°F13.2°C 49.3°F9.6°C 79% 5.8 mph NW9.3 kmh NW 11.5 mph18.5 kmh 30.07 in1018.3 mb - 0.00 in0.0 mm 0.01 in0.3 mm
09:00 AM 55.9°F13.3°C 49.8°F9.9°C 80% 4.6 mph NW7.4 kmh NW 6.9 mph11.1 kmh 30.08 in1018.6 mb - 0.00 in0.0 mm 0.01 in0.3 mm
09:10 AM 56.1°F13.4°C 50.3°F10.2°C 81% 3.5 mph W5.6 kmh W 8.1 mph13.0 kmh 30.08 in1018.6 mb - 0.00 in0.0 mm 0.01 in0.3 mm
09:20 AM 56.5°F13.6°C 50.4°F10.2°C 80% 4.6 mph NW7.4 kmh NW 6.9 mph11.1 kmh 30.09 in1019.0 mb - 0.00 in0.0 mm 0.01 in0.3 mm
09:30 AM 57.0°F13.9°C 49.9°F9.9°C 77% 6.9 mph NW11.1 kmh NW 11.5 mph18.5 kmh 30.09 in1019.0 mb - 0.00 in0.0 mm 0.01 in0.3 mm
09:40 AM 57.5°F14.2°C 50.0°F10.0°C 76% 1.2 mph NW1.9 kmh NW 4.6 mph7.4 kmh 30.09 in1019.0 mb - 0.00 in0.0 mm 0.01 in0.3 mm
09:50 AM 58.0°F14.4°C 50.5°F10.3°C 76% 5.8 mph NW9.3 kmh NW 8.1 mph13.0 kmh 30.10 in1019.3 mb - 0.00 in0.0 mm 0.01 in0.3 mm
10:00 AM 58.8°F14.9°C 50.1°F10.1°C 73% 5.8 mph NW9.3 kmh NW 8.1 mph13.0 kmh 30.10 in1019.3 mb - 0.00 in0.0 mm 0.01 in0.3 mm
10:10 AM 58.7°F14.8°C 49.3°F9.6°C 71% 6.9 mph NW11.1 kmh NW 13.8 mph22.2 kmh 30.10 in1019.3 mb - 0.00 in0.0 mm 0.01 in0.3 mm
10:20 AM 59.3°F15.2°C 49.5°F9.7°C 70% 5.8 mph NW9.3 kmh NW 8.1 mph13.0 kmh 30.11 in1019.6 mb - 0.00 in0.0 mm 0.01 in0.3 mm
10:30 AM 59.8°F15.4°C 49.3°F9.6°C 68% 6.9 mph NW11.1 kmh NW 11.5 mph18.5 kmh 30.11 in1019.6 mb - 0.00 in0.0 mm 0.01 in0.3 mm
10:40 AM 59.5°F15.3°C 49.7°F9.8°C 70% 4.6 mph NW7.4 kmh NW 8.1 mph13.0 kmh 30.11 in1019.6 mb - 0.00 in0.0 mm 0.01 in0.3 mm
10:50 AM 59.9°F15.5°C 49.3°F9.6°C 68% 5.8 mph WNW9.3 kmh WNW 8.1 mph13.0 kmh 30.11 in1019.6 mb - 0.00 in0.0 mm 0.01 in0.3 mm
11:00 AM 59.6°F15.3°C 49.0°F9.4°C 68% 8.1 mph NW13.0 kmh NW 13.8 mph22.2 kmh 30.11 in1019.6 mb - 0.00 in0.0 mm 0.01 in0.3 mm
11:10 AM 59.5°F15.3°C 49.3°F9.6°C 69% 5.8 mph NW9.3 kmh NW 9.2 mph14.8 kmh 30.11 in1019.6 mb - 0.00 in0.0 mm 0.01 in0.3 mm
11:20 AM 59.7°F15.4°C 49.1°F9.5°C 68% 5.8 mph NW9.3 kmh NW 9.2 mph14.8 kmh 30.11 in1019.6 mb - 0.00 in0.0 mm 0.01 in0.3 mm
11:30 AM 59.7°F15.4°C 49.5°F9.7°C 69% 5.8 mph NNW9.3 kmh NNW 8.1 mph13.0 kmh 30.11 in1019.6 mb - 0.00 in0.0 mm 0.01 in0.3 mm
11:40 AM 60.1°F15.6°C 48.7°F9.3°C 66% 3.5 mph NW5.6 kmh NW 8.1 mph13.0 kmh 30.11 in1019.6 mb - 0.00 in0.0 mm 0.01 in0.3 mm
11:50 AM 60.3°F15.7°C 49.7°F9.8°C 68% 4.6 mph NNW7.4 kmh NNW 8.1 mph13.0 kmh 30.11 in1019.6 mb - 0.00 in0.0 mm 0.01 in0.3 mm
12:00 PM 60.3°F15.7°C 49.7°F9.8°C 68% 5.8 mph NW9.3 kmh NW 9.2 mph14.8 kmh 30.12 in1020.0 mb - 0.00 in0.0 mm 0.01 in0.3 mm
12:10 PM 60.6°F15.9°C 49.6°F9.8°C 67% 1.2 mph NNW1.9 kmh NNW 6.9 mph11.1 kmh 30.12 in1020.0 mb - 0.00 in0.0 mm 0.01 in0.3 mm
12:20 PM 61.0°F16.1°C 50.0°F10.0°C 67% 4.6 mph NNW7.4 kmh NNW 8.1 mph13.0 kmh 30.12 in1020.0 mb - 0.00 in0.0 mm 0.01 in0.3 mm
12:30 PM 60.8°F16.0°C 49.0°F9.4°C 65% 2.3 mph NW3.7 kmh NW 4.6 mph7.4 kmh 30.12 in1020.0 mb - 0.00 in0.0 mm 0.01 in0.3 mm
12:40 PM 61.0°F16.1°C 48.7°F9.3°C 64% 1.2 mph NW1.9 kmh NW 5.8 mph9.3 kmh 30.12 in1020.0 mb - 0.00 in0.0 mm 0.01 in0.3 mm
12:50 PM 61.2°F16.2°C 48.9°F9.4°C 64% 3.5 mph NW5.6 kmh NW 8.1 mph13.0 kmh 30.12 in1020.0 mb - 0.00 in0.0 mm 0.01 in0.3 mm
01:00 PM 61.7°F16.5°C 48.5°F9.2°C 62% 4.6 mph NNW7.4 kmh NNW 9.2 mph14.8 kmh 30.12 in1020.0 mb - 0.00 in0.0 mm 0.01 in0.3 mm
01:10 PM 62.2°F16.8°C 49.4°F9.7°C 63% 5.8 mph NW9.3 kmh NW 11.5 mph18.5 kmh 30.12 in1020.0 mb - 0.00 in0.0 mm 0.01 in0.3 mm
01:20 PM 62.5°F16.9°C 49.7°F9.8°C 63% 5.8 mph NW9.3 kmh NW 8.1 mph13.0 kmh 30.13 in1020.3 mb - 0.00 in0.0 mm 0.01 in0.3 mm
01:30 PM 62.0°F16.7°C 49.3°F9.6°C 63% 2.3 mph NW3.7 kmh NW 5.8 mph9.3 kmh 30.13 in1020.3 mb - 0.00 in0.0 mm 0.01 in0.3 mm
01:40 PM 62.2°F16.8°C 49.4°F9.7°C 63% 4.6 mph WNW7.4 kmh WNW 5.8 mph9.3 kmh 30.13 in1020.3 mb - 0.00 in0.0 mm 0.01 in0.3 mm
01:50 PM 62.8°F17.1°C 49.6°F9.8°C 62% 6.9 mph W11.1 kmh W 11.5 mph18.5 kmh 30.12 in1020.0 mb - 0.00 in0.0 mm 0.01 in0.3 mm
02:00 PM 63.4°F17.4°C 49.7°F9.8°C 61% 4.6 mph WNW7.4 kmh WNW 8.1 mph13.0 kmh 30.13 in1020.3 mb - 0.00 in0.0 mm 0.01 in0.3 mm
02:10 PM 63.2°F17.3°C 49.1°F9.5°C 60% 4.6 mph WNW7.4 kmh WNW 11.5 mph18.5 kmh 30.14 in1020.7 mb - 0.00 in0.0 mm 0.01 in0.3 mm
02:20 PM 63.2°F17.3°C 49.1°F9.5°C 60% 5.8 mph WNW9.3 kmh WNW 11.5 mph18.5 kmh 30.14 in1020.7 mb - 0.00 in0.0 mm 0.01 in0.3 mm
02:30 PM 63.4°F17.4°C 48.4°F9.1°C 58% 4.6 mph NW7.4 kmh NW 6.9 mph11.1 kmh 30.14 in1020.7 mb - 0.00 in0.0 mm 0.01 in0.3 mm
02:40 PM 63.1°F17.3°C 48.5°F9.2°C 59% 5.8 mph NW9.3 kmh NW 8.1 mph13.0 kmh 30.14 in1020.7 mb - 0.00 in0.0 mm 0.01 in0.3 mm
02:50 PM 62.8°F17.1°C 48.7°F9.3°C 60% 4.6 mph NNW7.4 kmh NNW 8.1 mph13.0 kmh 30.14 in1020.7 mb - 0.00 in0.0 mm 0.01 in0.3 mm
03:00 PM 62.6°F17.0°C 49.4°F9.7°C 62% 4.6 mph NW7.4 kmh NW 6.9 mph11.1 kmh 30.14 in1020.7 mb - 0.00 in0.0 mm 0.01 in0.3 mm
03:10 PM 62.5°F16.9°C 46.6°F8.1°C 56% 3.5 mph WNW5.6 kmh WNW 5.8 mph9.3 kmh 30.14 in1020.7 mb - 0.00 in0.0 mm 0.01 in0.3 mm
03:20 PM 62.6°F17.0°C 48.0°F8.9°C 59% 4.6 mph NNW7.4 kmh NNW 8.1 mph13.0 kmh 30.15 in1021.0 mb - 0.00 in0.0 mm 0.01 in0.3 mm
03:30 PM 62.6°F17.0°C 48.5°F9.2°C 60% 4.6 mph NNW7.4 kmh NNW 6.9 mph11.1 kmh 30.15 in1021.0 mb - 0.00 in0.0 mm 0.01 in0.3 mm
03:40 PM 63.3°F17.4°C 49.2°F9.6°C 60% 5.8 mph WNW9.3 kmh WNW 9.2 mph14.8 kmh 30.15 in1021.0 mb - 0.00 in0.0 mm 0.01 in0.3 mm
03:50 PM 63.1°F17.3°C 49.4°F9.7°C 61% 4.6 mph WNW7.4 kmh WNW 8.1 mph13.0 kmh 30.15 in1021.0 mb - 0.00 in0.0 mm 0.01 in0.3 mm
04:00 PM 62.9°F17.2°C 50.1°F10.1°C 63% 4.6 mph NW7.4 kmh NW 8.1 mph13.0 kmh 30.16 in1021.3 mb - 0.00 in0.0 mm 0.01 in0.3 mm
04:10 PM 62.8°F17.1°C 49.6°F9.8°C 62% 6.9 mph NW11.1 kmh NW 11.5 mph18.5 kmh 30.16 in1021.3 mb - 0.00 in0.0 mm 0.01 in0.3 mm
04:20 PM 62.7°F17.1°C 49.1°F9.5°C 61% 3.5 mph NNW5.6 kmh NNW 8.1 mph13.0 kmh 30.16 in1021.3 mb - 0.00 in0.0 mm 0.01 in0.3 mm
04:30 PM 62.8°F17.1°C 49.1°F9.5°C 61% 3.5 mph NW5.6 kmh NW 8.1 mph13.0 kmh 30.16 in1021.3 mb - 0.00 in0.0 mm 0.01 in0.3 mm
04:40 PM 63.0°F17.2°C 49.7°F9.8°C 62% 2.3 mph NW3.7 kmh NW 5.8 mph9.3 kmh 30.16 in1021.3 mb - 0.00 in0.0 mm 0.01 in0.3 mm
04:50 PM 63.3°F17.4°C 50.1°F10.1°C 62% 4.6 mph NW7.4 kmh NW 9.2 mph14.8 kmh 30.16 in1021.3 mb - 0.00 in0.0 mm 0.01 in0.3 mm
05:00 PM 63.3°F17.4°C 48.8°F9.3°C 59% 8.1 mph NW13.0 kmh NW 11.5 mph18.5 kmh 30.16 in1021.3 mb - 0.00 in0.0 mm 0.01 in0.3 mm
05:10 PM 62.7°F17.1°C 49.1°F9.5°C 61% 8.1 mph NW13.0 kmh NW 13.8 mph22.2 kmh 30.17 in1021.7 mb - 0.00 in0.0 mm 0.01 in0.3 mm
05:20 PM 62.4°F16.9°C 49.2°F9.6°C 62% 5.8 mph NW9.3 kmh NW 8.1 mph13.0 kmh 30.17 in1021.7 mb - 0.00 in0.0 mm 0.01 in0.3 mm
05:30 PM 62.5°F16.9°C 49.7°F9.8°C 63% 4.6 mph NW7.4 kmh NW 8.1 mph13.0 kmh 30.17 in1021.7 mb - 0.00 in0.0 mm 0.01 in0.3 mm
05:40 PM 62.5°F16.9°C 49.3°F9.6°C 62% 4.6 mph NNW7.4 kmh NNW 8.1 mph13.0 kmh 30.17 in1021.7 mb - 0.00 in0.0 mm 0.01 in0.3 mm
05:50 PM 62.3°F16.8°C 49.1°F9.5°C 62% 4.6 mph NNW7.4 kmh NNW 8.1 mph13.0 kmh 30.17 in1021.7 mb - 0.00 in0.0 mm 0.01 in0.3 mm
06:00 PM 62.1°F16.7°C 49.4°F9.7°C 63% 4.6 mph NNW7.4 kmh NNW 5.8 mph9.3 kmh 30.17 in1021.7 mb - 0.00 in0.0 mm 0.01 in0.3 mm
06:10 PM 61.8°F16.6°C 49.5°F9.7°C 64% 4.6 mph NW7.4 kmh NW 8.1 mph13.0 kmh 30.18 in1022.0 mb - 0.00 in0.0 mm 0.01 in0.3 mm
06:20 PM 61.4°F16.3°C 48.3°F9.1°C 62% 4.6 mph NNW7.4 kmh NNW 8.1 mph13.0 kmh 30.18 in1022.0 mb - 0.00 in0.0 mm 0.01 in0.3 mm
06:30 PM 61.2°F16.2°C 48.1°F8.9°C 62% 4.6 mph NNW7.4 kmh NNW 8.1 mph13.0 kmh 30.18 in1022.0 mb - 0.00 in0.0 mm 0.01 in0.3 mm
06:40 PM 60.9°F16.1°C 47.4°F8.6°C 61% 3.5 mph NW5.6 kmh NW 5.8 mph9.3 kmh 30.18 in1022.0 mb - 0.00 in0.0 mm 0.01 in0.3 mm
06:50 PM 60.7°F15.9°C 47.6°F8.7°C 62% 2.3 mph W3.7 kmh W 2.3 mph3.7 kmh 30.19 in1022.4 mb - 0.00 in0.0 mm 0.01 in0.3 mm
07:00 PM 60.5°F15.8°C 47.8°F8.8°C 63% 2.3 mph NW3.7 kmh NW 2.3 mph3.7 kmh 30.20 in1022.7 mb - 0.00 in0.0 mm 0.01 in0.3 mm
07:10 PM 60.1°F15.6°C 47.9°F8.8°C 64% 3.5 mph NW5.6 kmh NW 5.8 mph9.3 kmh 30.20 in1022.7 mb - 0.00 in0.0 mm 0.01 in0.3 mm
07:20 PM 59.8°F15.4°C 47.2°F8.4°C 63% 3.5 mph NW5.6 kmh NW 6.9 mph11.1 kmh 30.20 in1022.7 mb - 0.00 in0.0 mm 0.01 in0.3 mm
07:30 PM 59.5°F15.3°C 47.3°F8.5°C 64% 1.2 mph WNW1.9 kmh WNW 2.3 mph3.7 kmh 30.21 in1023.0 mb - 0.00 in0.0 mm 0.01 in0.3 mm
07:40 PM 59.2°F15.1°C 47.0°F8.3°C 64% 1.2 mph NW1.9 kmh NW 2.3 mph3.7 kmh 30.21 in1023.0 mb - 0.00 in0.0 mm 0.01 in0.3 mm
07:50 PM 59.0°F15.0°C 47.2°F8.4°C 65% 3.5 mph NW5.6 kmh NW 6.9 mph11.1 kmh 30.22 in1023.4 mb - 0.00 in0.0 mm 0.01 in0.3 mm
08:00 PM 58.8°F14.9°C 47.1°F8.4°C 65% 3.5 mph NW5.6 kmh NW 8.1 mph13.0 kmh 30.22 in1023.4 mb - 0.00 in0.0 mm 0.01 in0.3 mm
08:10 PM 58.4°F14.7°C 47.1°F8.4°C 66% 4.6 mph NW7.4 kmh NW 6.9 mph11.1 kmh 30.23 in1023.7 mb - 0.00 in0.0 mm 0.01 in0.3 mm
08:20 PM 58.0°F14.4°C 47.1°F8.4°C 67% 3.5 mph NNW5.6 kmh NNW 5.8 mph9.3 kmh 30.23 in1023.7 mb - 0.00 in0.0 mm 0.01 in0.3 mm
08:30 PM 57.6°F14.2°C 47.1°F8.4°C 68% 2.3 mph NW3.7 kmh NW 4.6 mph7.4 kmh 30.23 in1023.7 mb - 0.00 in0.0 mm 0.01 in0.3 mm
08:40 PM 57.2°F14.0°C 47.1°F8.4°C 69% Calm Calm -- 30.23 in1023.7 mb - 0.00 in0.0 mm 0.01 in0.3 mm
08:50 PM 56.8°F13.8°C 47.1°F8.4°C 70% Calm Calm 2.3 mph3.7 kmh 30.23 in1023.7 mb - 0.00 in0.0 mm 0.01 in0.3 mm
09:00 PM 56.4°F13.6°C 47.1°F8.4°C 71% 1.2 mph NW1.9 kmh NW 5.8 mph9.3 kmh 30.23 in1023.7 mb - 0.00 in0.0 mm 0.01 in0.3 mm
09:10 PM 56.1°F13.4°C 47.2°F8.4°C 72% 3.5 mph NW5.6 kmh NW 5.8 mph9.3 kmh 30.23 in1023.7 mb - 0.00 in0.0 mm 0.01 in0.3 mm
09:20 PM 56.0°F13.3°C 47.1°F8.4°C 72% 2.3 mph NW3.7 kmh NW 2.3 mph3.7 kmh 30.23 in1023.7 mb - 0.00 in0.0 mm 0.01 in0.3 mm
09:30 PM 55.5°F13.1°C 47.0°F8.3°C 73% Calm Calm -- 30.23 in1023.7 mb - 0.00 in0.0 mm 0.01 in0.3 mm
09:40 PM 55.1°F12.8°C 47.0°F8.3°C 74% 3.5 mph NNW5.6 kmh NNW 5.8 mph9.3 kmh 30.23 in1023.7 mb - 0.00 in0.0 mm 0.01 in0.3 mm
09:50 PM 54.7°F12.6°C 46.9°F8.3°C 75% 1.2 mph NNW1.9 kmh NNW 4.6 mph7.4 kmh 30.23 in1023.7 mb - 0.00 in0.0 mm 0.01 in0.3 mm
10:00 PM 54.5°F12.5°C 46.7°F8.2°C 75% 3.5 mph NNW5.6 kmh NNW 5.8 mph9.3 kmh 30.23 in1023.7 mb - 0.00 in0.0 mm 0.01 in0.3 mm
10:10 PM 54.3°F12.4°C 46.5°F8.1°C 75% 2.3 mph NNW3.7 kmh NNW 5.8 mph9.3 kmh 30.23 in1023.7 mb - 0.00 in0.0 mm 0.01 in0.3 mm
10:20 PM 54.0°F12.2°C 46.6°F8.1°C 76% Calm Calm -- 30.23 in1023.7 mb - 0.00 in0.0 mm 0.01 in0.3 mm
10:30 PM 53.6°F12.0°C 46.2°F7.9°C 76% Calm Calm -- 30.23 in1023.7 mb - 0.00 in0.0 mm 0.01 in0.3 mm
10:40 PM 52.8°F11.6°C 46.1°F7.8°C 78% Calm Calm -- 30.24 in1024.0 mb - 0.00 in0.0 mm 0.01 in0.3 mm
10:50 PM 52.0°F11.1°C 45.7°F7.6°C 79% Calm Calm -- 30.24 in1024.0 mb - 0.00 in0.0 mm 0.01 in0.3 mm
11:00 PM 51.7°F10.9°C 46.1°F7.8°C 81% Calm Calm -- 30.24 in1024.0 mb - 0.00 in0.0 mm 0.06 in1.5 mm
11:10 PM 51.8°F11.0°C 46.2°F7.9°C 81% Calm Calm -- 30.24 in1024.0 mb - 0.00 in0.0 mm 0.06 in1.5 mm
11:20 PM 52.0°F11.1°C 46.3°F7.9°C 81% Calm Calm -- 30.24 in1024.0 mb - 0.00 in0.0 mm 0.06 in1.5 mm
11:30 PM 52.4°F11.3°C 46.7°F8.2°C 81% Calm Calm -- 30.24 in1024.0 mb - 0.00 in0.0 mm 0.06 in1.5 mm
11:40 PM 52.7°F11.5°C 46.7°F8.2°C 80% 1.2 mph WNW1.9 kmh WNW 4.6 mph7.4 kmh 30.24 in1024.0 mb - 0.00 in0.0 mm 0.06 in1.5 mm
11:50 PM 52.9°F11.6°C 46.9°F8.3°C 80% 1.2 mph WNW1.9 kmh WNW 4.6 mph7.4 kmh 30.24 in1024.0 mb - 0.00 in0.0 mm 0.06 in1.5 mm